sensor_id;sensor_type;location;lat;lon;timestamp;temperature;humidity
20066;DHT22;10193;48.884;9.182;2024-02-26T00:01:12;10.40;54.80
20066;DHT22;10193;48.884;9.182;2024-02-26T00:03:38;10.40;54.80
20066;DHT22;10193;48.884;9.182;2024-02-26T00:06:07;10.40;54.90
20066;DHT22;10193;48.884;9.182;2024-02-26T00:08:34;10.40;54.80
20066;DHT22;10193;48.884;9.182;2024-02-26T00:11:01;10.50;54.90
20066;DHT22;10193;48.884;9.182;2024-02-26T00:13:27;10.40;54.80
20066;DHT22;10193;48.884;9.182;2024-02-26T00:15:54;10.40;54.80
20066;DHT22;10193;48.884;9.182;2024-02-26T00:18:22;10.40;54.90
20066;DHT22;10193;48.884;9.182;2024-02-26T00:20:49;10.40;54.90
20066;DHT22;10193;48.884;9.182;2024-02-26T00:23:15;10.40;54.90
20066;DHT22;10193;48.884;9.182;2024-02-26T00:25:42;10.40;54.90
20066;DHT22;10193;48.884;9.182;2024-02-26T00:28:10;10.40;54.90
20066;DHT22;10193;48.884;9.182;2024-02-26T00:30:38;10.40;55.00
20066;DHT22;10193;48.884;9.182;2024-02-26T00:33:05;10.40;55.00
20066;DHT22;10193;48.884;9.182;2024-02-26T00:35:33;10.40;55.00
20066;DHT22;10193;48.884;9.182;2024-02-26T00:38:00;10.30;54.90
20066;DHT22;10193;48.884;9.182;2024-02-26T00:40:28;10.40;55.00
20066;DHT22;10193;48.884;9.182;2024-02-26T00:42:55;10.40;55.00
20066;DHT22;10193;48.884;9.182;2024-02-26T00:45:22;10.40;55.00
20066;DHT22;10193;48.884;9.182;2024-02-26T00:47:48;10.40;55.00
20066;DHT22;10193;48.884;9.182;2024-02-26T00:50:15;10.30;55.00
20066;DHT22;10193;48.884;9.182;2024-02-26T00:52:43;10.30;55.00
20066;DHT22;10193;48.884;9.182;2024-02-26T00:55:10;10.40;55.10
20066;DHT22;10193;48.884;9.182;2024-02-26T00:57:36;10.30;55.00
20066;DHT22;10193;48.884;9.182;2024-02-26T01:00:04;10.40;55.20
20066;DHT22;10193;48.884;9.182;2024-02-26T01:02:32;10.40;55.20
20066;DHT22;10193;48.884;9.182;2024-02-26T01:04:59;10.30;55.10
20066;DHT22;10193;48.884;9.182;2024-02-26T01:07:25;10.30;55.20
20066;DHT22;10193;48.884;9.182;2024-02-26T01:09:53;10.30;55.10
20066;DHT22;10193;48.884;9.182;2024-02-26T01:12:20;10.30;55.20
20066;DHT22;10193;48.884;9.182;2024-02-26T01:14:46;10.30;55.20
20066;DHT22;10193;48.884;9.182;2024-02-26T01:17:13;10.30;55.20
20066;DHT22;10193;48.884;9.182;2024-02-26T01:19:40;10.30;55.30
20066;DHT22;10193;48.884;9.182;2024-02-26T01:22:06;10.30;55.40
20066;DHT22;10193;48.884;9.182;2024-02-26T01:24:33;10.30;55.50
20066;DHT22;10193;48.884;9.182;2024-02-26T01:27:01;10.30;55.50
20066;DHT22;10193;48.884;9.182;2024-02-26T01:29:28;10.30;55.50
20066;DHT22;10193;48.884;9.182;2024-02-26T01:31:54;10.30;55.50
20066;DHT22;10193;48.884;9.182;2024-02-26T01:34:21;10.30;55.40
20066;DHT22;10193;48.884;9.182;2024-02-26T01:36:48;10.30;55.40
20066;DHT22;10193;48.884;9.182;2024-02-26T01:39:14;10.30;55.40
20066;DHT22;10193;48.884;9.182;2024-02-26T01:41:41;10.30;55.40
20066;DHT22;10193;48.884;9.182;2024-02-26T01:44:12;10.30;55.30
20066;DHT22;10193;48.884;9.182;2024-02-26T01:46:39;10.30;55.20
20066;DHT22;10193;48.884;9.182;2024-02-26T01:49:06;10.30;55.30
20066;DHT22;10193;48.884;9.182;2024-02-26T01:51:35;10.30;55.20
20066;DHT22;10193;48.884;9.182;2024-02-26T01:54:03;10.30;55.20
20066;DHT22;10193;48.884;9.182;2024-02-26T01:56:31;10.40;55.20
20066;DHT22;10193;48.884;9.182;2024-02-26T01:58:58;10.30;55.20
20066;DHT22;10193;48.884;9.182;2024-02-26T02:01:27;10.30;55.10
20066;DHT22;10193;48.884;9.182;2024-02-26T02:03:55;10.40;55.20
20066;DHT22;10193;48.884;9.182;2024-02-26T02:06:22;10.30;55.20
20066;DHT22;10193;48.884;9.182;2024-02-26T02:08:49;10.40;55.40
20066;DHT22;10193;48.884;9.182;2024-02-26T02:11:16;10.40;55.40
20066;DHT22;10193;48.884;9.182;2024-02-26T02:13:43;10.30;55.30
20066;DHT22;10193;48.884;9.182;2024-02-26T02:16:10;10.30;55.40
20066;DHT22;10193;48.884;9.182;2024-02-26T02:18:38;10.30;55.50
20066;DHT22;10193;48.884;9.182;2024-02-26T02:21:06;10.30;55.50
20066;DHT22;10193;48.884;9.182;2024-02-26T02:23:33;10.30;55.40
20066;DHT22;10193;48.884;9.182;2024-02-26T02:25:59;10.30;55.40
20066;DHT22;10193;48.884;9.182;2024-02-26T02:28:27;10.20;55.30
20066;DHT22;10193;48.884;9.182;2024-02-26T02:30:54;10.20;55.30
20066;DHT22;10193;48.884;9.182;2024-02-26T02:33:21;10.20;55.30
20066;DHT22;10193;48.884;9.182;2024-02-26T02:35:48;10.20;55.30
20066;DHT22;10193;48.884;9.182;2024-02-26T02:38:17;10.20;55.30
20066;DHT22;10193;48.884;9.182;2024-02-26T02:40:44;10.20;55.30
20066;DHT22;10193;48.884;9.182;2024-02-26T02:43:11;10.20;55.30
20066;DHT22;10193;48.884;9.182;2024-02-26T02:45:37;10.20;55.40
20066;DHT22;10193;48.884;9.182;2024-02-26T02:48:04;10.20;55.50
20066;DHT22;10193;48.884;9.182;2024-02-26T02:50:31;10.20;56.20
20066;DHT22;10193;48.884;9.182;2024-02-26T02:52:58;10.10;55.60
20066;DHT22;10193;48.884;9.182;2024-02-26T02:55:26;10.20;55.80
20066;DHT22;10193;48.884;9.182;2024-02-26T02:57:53;10.10;55.80
20066;DHT22;10193;48.884;9.182;2024-02-26T03:00:20;10.10;55.80
20066;DHT22;10193;48.884;9.182;2024-02-26T03:02:48;10.10;55.90
20066;DHT22;10193;48.884;9.182;2024-02-26T03:05:15;10.10;55.90
20066;DHT22;10193;48.884;9.182;2024-02-26T03:07:41;10.10;55.90
20066;DHT22;10193;48.884;9.182;2024-02-26T03:10:08;10.10;56.10
20066;DHT22;10193;48.884;9.182;2024-02-26T03:12:37;10.10;56.20
20066;DHT22;10193;48.884;9.182;2024-02-26T03:15:04;10.20;56.30
20066;DHT22;10193;48.884;9.182;2024-02-26T03:17:31;10.20;56.40
20066;DHT22;10193;48.884;9.182;2024-02-26T03:19:58;10.20;56.30
20066;DHT22;10193;48.884;9.182;2024-02-26T03:22:25;10.30;56.40
20066;DHT22;10193;48.884;9.182;2024-02-26T03:24:51;10.30;56.30
20066;DHT22;10193;48.884;9.182;2024-02-26T03:27:19;10.40;56.40
20066;DHT22;10193;48.884;9.182;2024-02-26T03:29:47;10.40;56.30
20066;DHT22;10193;48.884;9.182;2024-02-26T03:32:13;10.40;56.20
20066;DHT22;10193;48.884;9.182;2024-02-26T03:34:40;10.30;56.10
20066;DHT22;10193;48.884;9.182;2024-02-26T03:37:07;10.40;56.10
20066;DHT22;10193;48.884;9.182;2024-02-26T03:39:36;10.40;56.10
20066;DHT22;10193;48.884;9.182;2024-02-26T03:42:03;10.40;56.10
20066;DHT22;10193;48.884;9.182;2024-02-26T03:44:30;10.40;56.20
20066;DHT22;10193;48.884;9.182;2024-02-26T03:46:58;10.40;56.30
20066;DHT22;10193;48.884;9.182;2024-02-26T03:49:24;10.40;56.30
20066;DHT22;10193;48.884;9.182;2024-02-26T03:51:51;10.40;56.40
20066;DHT22;10193;48.884;9.182;2024-02-26T03:54:17;10.40;56.30
20066;DHT22;10193;48.884;9.182;2024-02-26T03:56:44;10.40;56.40
20066;DHT22;10193;48.884;9.182;2024-02-26T03:59:10;10.40;56.30
20066;DHT22;10193;48.884;9.182;2024-02-26T04:01:37;10.40;56.30
20066;DHT22;10193;48.884;9.182;2024-02-26T04:04:06;10.40;56.40
20066;DHT22;10193;48.884;9.182;2024-02-26T04:06:32;10.40;56.30
20066;DHT22;10193;48.884;9.182;2024-02-26T04:08:59;10.40;56.40
20066;DHT22;10193;48.884;9.182;2024-02-26T04:11:29;10.40;56.30
20066;DHT22;10193;48.884;9.182;2024-02-26T04:13:55;10.40;56.30
20066;DHT22;10193;48.884;9.182;2024-02-26T04:16:22;10.50;56.30
20066;DHT22;10193;48.884;9.182;2024-02-26T04:18:49;10.40;56.30
20066;DHT22;10193;48.884;9.182;2024-02-26T04:21:17;10.50;56.50
20066;DHT22;10193;48.884;9.182;2024-02-26T04:23:43;10.40;56.30
20066;DHT22;10193;48.884;9.182;2024-02-26T04:26:10;10.40;56.30
20066;DHT22;10193;48.884;9.182;2024-02-26T04:28:37;10.40;56.30
20066;DHT22;10193;48.884;9.182;2024-02-26T04:31:03;10.40;56.30
20066;DHT22;10193;48.884;9.182;2024-02-26T04:33:30;10.40;56.20
20066;DHT22;10193;48.884;9.182;2024-02-26T04:36:00;10.30;56.20
20066;DHT22;10193;48.884;9.182;2024-02-26T04:38:28;10.30;56.10
20066;DHT22;10193;48.884;9.182;2024-02-26T04:40:55;10.30;56.00
20066;DHT22;10193;48.884;9.182;2024-02-26T04:43:21;10.20;55.90
20066;DHT22;10193;48.884;9.182;2024-02-26T04:45:48;10.30;56.00
20066;DHT22;10193;48.884;9.182;2024-02-26T04:48:15;10.20;55.90
20066;DHT22;10193;48.884;9.182;2024-02-26T04:50:41;10.20;56.00
20066;DHT22;10193;48.884;9.182;2024-02-26T04:53:08;10.20;56.00
20066;DHT22;10193;48.884;9.182;2024-02-26T04:55:36;10.20;56.10
20066;DHT22;10193;48.884;9.182;2024-02-26T04:58:03;10.20;56.20
20066;DHT22;10193;48.884;9.182;2024-02-26T05:00:29;10.20;56.20
20066;DHT22;10193;48.884;9.182;2024-02-26T05:02:56;10.20;56.30
20066;DHT22;10193;48.884;9.182;2024-02-26T05:05:23;10.10;56.30
20066;DHT22;10193;48.884;9.182;2024-02-26T05:07:50;10.10;56.30
20066;DHT22;10193;48.884;9.182;2024-02-26T05:10:17;10.10;56.30
20066;DHT22;10193;48.884;9.182;2024-02-26T05:12:45;10.10;56.30
20066;DHT22;10193;48.884;9.182;2024-02-26T05:15:11;10.10;56.30
20066;DHT22;10193;48.884;9.182;2024-02-26T05:17:43;10.10;56.40
20066;DHT22;10193;48.884;9.182;2024-02-26T05:20:10;10.10;56.50
20066;DHT22;10193;48.884;9.182;2024-02-26T05:22:37;10.00;56.40
20066;DHT22;10193;48.884;9.182;2024-02-26T05:25:04;10.00;56.40
20066;DHT22;10193;48.884;9.182;2024-02-26T05:27:31;10.00;56.40
20066;DHT22;10193;48.884;9.182;2024-02-26T05:29:59;10.00;56.50
20066;DHT22;10193;48.884;9.182;2024-02-26T05:32:25;10.00;56.50
20066;DHT22;10193;48.884;9.182;2024-02-26T05:34:52;9.90;57.30
20066;DHT22;10193;48.884;9.182;2024-02-26T05:37:18;9.90;57.40
20066;DHT22;10193;48.884;9.182;2024-02-26T05:39:45;9.90;57.40
20066;DHT22;10193;48.884;9.182;2024-02-26T05:42:11;9.90;57.40
20066;DHT22;10193;48.884;9.182;2024-02-26T05:44:37;9.90;57.50
20066;DHT22;10193;48.884;9.182;2024-02-26T05:47:05;9.90;57.50
20066;DHT22;10193;48.884;9.182;2024-02-26T05:49:32;10.00;56.70
20066;DHT22;10193;48.884;9.182;2024-02-26T05:51:59;10.00;56.80
20066;DHT22;10193;48.884;9.182;2024-02-26T05:54:25;9.90;57.60
20066;DHT22;10193;48.884;9.182;2024-02-26T05:56:52;10.00;56.80
20066;DHT22;10193;48.884;9.182;2024-02-26T05:59:19;10.00;56.90
20066;DHT22;10193;48.884;9.182;2024-02-26T06:01:45;10.00;56.90
20066;DHT22;10193;48.884;9.182;2024-02-26T06:04:14;10.00;57.00
20066;DHT22;10193;48.884;9.182;2024-02-26T06:06:40;10.00;57.10
20066;DHT22;10193;48.884;9.182;2024-02-26T06:09:07;10.00;57.10
20066;DHT22;10193;48.884;9.182;2024-02-26T06:11:34;10.00;57.10
20066;DHT22;10193;48.884;9.182;2024-02-26T06:14:00;10.00;57.20
20066;DHT22;10193;48.884;9.182;2024-02-26T06:16:27;10.00;57.30
20066;DHT22;10193;48.884;9.182;2024-02-26T06:18:54;10.00;57.40
20066;DHT22;10193;48.884;9.182;2024-02-26T06:21:22;10.10;57.60
20066;DHT22;10193;48.884;9.182;2024-02-26T06:23:48;10.10;57.70
20066;DHT22;10193;48.884;9.182;2024-02-26T06:26:16;10.10;57.70
20066;DHT22;10193;48.884;9.182;2024-02-26T06:28:42;10.10;57.80
20066;DHT22;10193;48.884;9.182;2024-02-26T06:31:10;10.10;58.00
20066;DHT22;10193;48.884;9.182;2024-02-26T06:33:36;10.10;58.10
20066;DHT22;10193;48.884;9.182;2024-02-26T06:36:03;10.10;58.10
20066;DHT22;10193;48.884;9.182;2024-02-26T06:38:32;10.10;58.20
20066;DHT22;10193;48.884;9.182;2024-02-26T06:40:58;10.10;58.20
20066;DHT22;10193;48.884;9.182;2024-02-26T06:43:25;10.10;58.20
20066;DHT22;10193;48.884;9.182;2024-02-26T06:45:52;10.10;58.30
20066;DHT22;10193;48.884;9.182;2024-02-26T06:48:18;10.10;58.30
20066;DHT22;10193;48.884;9.182;2024-02-26T06:50:45;10.10;58.30
20066;DHT22;10193;48.884;9.182;2024-02-26T06:53:12;10.10;58.40
20066;DHT22;10193;48.884;9.182;2024-02-26T06:55:40;10.10;58.30
20066;DHT22;10193;48.884;9.182;2024-02-26T06:58:07;10.10;58.20
20066;DHT22;10193;48.884;9.182;2024-02-26T07:00:34;10.10;58.20
20066;DHT22;10193;48.884;9.182;2024-02-26T07:03:01;10.10;58.10
20066;DHT22;10193;48.884;9.182;2024-02-26T07:05:28;10.10;58.20
20066;DHT22;10193;48.884;9.182;2024-02-26T07:07:55;10.20;58.30
20066;DHT22;10193;48.884;9.182;2024-02-26T07:10:22;10.20;58.30
20066;DHT22;10193;48.884;9.182;2024-02-26T07:12:50;10.20;58.40
20066;DHT22;10193;48.884;9.182;2024-02-26T07:15:16;10.20;58.50
20066;DHT22;10193;48.884;9.182;2024-02-26T07:17:44;10.20;58.60
20066;DHT22;10193;48.884;9.182;2024-02-26T07:20:13;10.20;58.60
20066;DHT22;10193;48.884;9.182;2024-02-26T07:22:39;10.30;58.80
20066;DHT22;10193;48.884;9.182;2024-02-26T07:25:08;10.30;58.90
20066;DHT22;10193;48.884;9.182;2024-02-26T07:27:38;10.30;58.90
20066;DHT22;10193;48.884;9.182;2024-02-26T07:30:07;10.30;58.90
20066;DHT22;10193;48.884;9.182;2024-02-26T07:32:34;10.30;59.00
20066;DHT22;10193;48.884;9.182;2024-02-26T07:35:01;10.30;58.90
20066;DHT22;10193;48.884;9.182;2024-02-26T07:37:28;10.40;59.00
20066;DHT22;10193;48.884;9.182;2024-02-26T07:39:54;10.40;58.90
20066;DHT22;10193;48.884;9.182;2024-02-26T07:42:21;10.30;58.80
20066;DHT22;10193;48.884;9.182;2024-02-26T07:44:48;10.30;58.70
20066;DHT22;10193;48.884;9.182;2024-02-26T07:47:16;10.40;58.80
20066;DHT22;10193;48.884;9.182;2024-02-26T07:49:43;10.40;58.70
20066;DHT22;10193;48.884;9.182;2024-02-26T07:52:08;10.30;58.70
20066;DHT22;10193;48.884;9.182;2024-02-26T07:54:35;10.40;58.90
20066;DHT22;10193;48.884;9.182;2024-02-26T07:57:01;10.40;58.80
20066;DHT22;10193;48.884;9.182;2024-02-26T07:59:30;10.40;58.90
20066;DHT22;10193;48.884;9.182;2024-02-26T08:01:57;10.40;58.90
20066;DHT22;10193;48.884;9.182;2024-02-26T08:04:25;10.40;58.90
20066;DHT22;10193;48.884;9.182;2024-02-26T08:06:52;10.40;58.90
20066;DHT22;10193;48.884;9.182;2024-02-26T08:09:19;10.40;59.00
20066;DHT22;10193;48.884;9.182;2024-02-26T08:11:46;10.40;59.00
20066;DHT22;10193;48.884;9.182;2024-02-26T08:14:12;10.40;59.10
20066;DHT22;10193;48.884;9.182;2024-02-26T08:16:39;10.40;59.20
20066;DHT22;10193;48.884;9.182;2024-02-26T08:19:06;10.40;59.20
20066;DHT22;10193;48.884;9.182;2024-02-26T08:21:34;10.40;59.30
20066;DHT22;10193;48.884;9.182;2024-02-26T08:24:02;10.50;59.40
20066;DHT22;10193;48.884;9.182;2024-02-26T08:26:29;10.50;59.40
20066;DHT22;10193;48.884;9.182;2024-02-26T08:28:55;10.50;59.40
20066;DHT22;10193;48.884;9.182;2024-02-26T08:31:23;10.50;59.50
20066;DHT22;10193;48.884;9.182;2024-02-26T08:33:50;10.60;59.70
20066;DHT22;10193;48.884;9.182;2024-02-26T08:36:17;10.60;59.70
20066;DHT22;10193;48.884;9.182;2024-02-26T08:38:45;10.60;59.70
20066;DHT22;10193;48.884;9.182;2024-02-26T08:41:11;10.70;59.60
20066;DHT22;10193;48.884;9.182;2024-02-26T08:43:38;10.70;59.70
20066;DHT22;10193;48.884;9.182;2024-02-26T08:46:08;10.70;59.70
20066;DHT22;10193;48.884;9.182;2024-02-26T08:48:35;10.70;59.70
20066;DHT22;10193;48.884;9.182;2024-02-26T08:51:05;10.80;60.00
20066;DHT22;10193;48.884;9.182;2024-02-26T08:53:32;10.80;60.00
20066;DHT22;10193;48.884;9.182;2024-02-26T08:56:00;10.90;60.10
20066;DHT22;10193;48.884;9.182;2024-02-26T08:58:27;10.90;60.00
20066;DHT22;10193;48.884;9.182;2024-02-26T09:00:54;11.00;60.10
20066;DHT22;10193;48.884;9.182;2024-02-26T09:03:21;11.00;60.00
20066;DHT22;10193;48.884;9.182;2024-02-26T09:05:47;11.10;60.20
20066;DHT22;10193;48.884;9.182;2024-02-26T09:08:14;11.10;60.30
20066;DHT22;10193;48.884;9.182;2024-02-26T09:10:42;11.20;60.30
20066;DHT22;10193;48.884;9.182;2024-02-26T09:13:10;11.20;60.30
20066;DHT22;10193;48.884;9.182;2024-02-26T09:15:36;11.30;60.30
20066;DHT22;10193;48.884;9.182;2024-02-26T09:18:03;11.30;60.30
20066;DHT22;10193;48.884;9.182;2024-02-26T09:20:30;11.40;60.20
20066;DHT22;10193;48.884;9.182;2024-02-26T09:22:56;11.40;60.30
20066;DHT22;10193;48.884;9.182;2024-02-26T09:25:23;11.50;60.40
20066;DHT22;10193;48.884;9.182;2024-02-26T09:27:50;11.50;60.50
20066;DHT22;10193;48.884;9.182;2024-02-26T09:30:18;11.50;60.60
20066;DHT22;10193;48.884;9.182;2024-02-26T09:32:46;11.60;60.90
20066;DHT22;10193;48.884;9.182;2024-02-26T09:35:13;11.70;60.90
20066;DHT22;10193;48.884;9.182;2024-02-26T09:37:40;11.70;60.80
20066;DHT22;10193;48.884;9.182;2024-02-26T09:40:08;11.80;61.00
20066;DHT22;10193;48.884;9.182;2024-02-26T09:42:37;11.90;60.80
20066;DHT22;10193;48.884;9.182;2024-02-26T09:45:11;12.00;60.70
20066;DHT22;10193;48.884;9.182;2024-02-26T09:47:40;12.10;60.60
20066;DHT22;10193;48.884;9.182;2024-02-26T09:50:09;12.20;60.40
20066;DHT22;10193;48.884;9.182;2024-02-26T09:52:38;12.20;60.40
20066;DHT22;10193;48.884;9.182;2024-02-26T09:55:05;12.20;60.40
20066;DHT22;10193;48.884;9.182;2024-02-26T09:57:34;12.30;60.50
20066;DHT22;10193;48.884;9.182;2024-02-26T10:00:03;12.30;60.50
20066;DHT22;10193;48.884;9.182;2024-02-26T10:02:31;12.40;60.60
20066;DHT22;10193;48.884;9.182;2024-02-26T10:05:02;12.40;60.60
20066;DHT22;10193;48.884;9.182;2024-02-26T10:07:30;12.40;60.60
20066;DHT22;10193;48.884;9.182;2024-02-26T10:09:58;12.50;60.90
20066;DHT22;10193;48.884;9.182;2024-02-26T10:12:26;12.60;61.10
20066;DHT22;10193;48.884;9.182;2024-02-26T10:14:54;12.60;61.10
20066;DHT22;10193;48.884;9.182;2024-02-26T10:17:20;12.60;61.00
20066;DHT22;10193;48.884;9.182;2024-02-26T10:19:47;12.70;61.00
20066;DHT22;10193;48.884;9.182;2024-02-26T10:22:17;12.80;61.10
20066;DHT22;10193;48.884;9.182;2024-02-26T10:24:47;12.80;61.10
20066;DHT22;10193;48.884;9.182;2024-02-26T10:27:15;12.80;61.00
20066;DHT22;10193;48.884;9.182;2024-02-26T10:29:41;12.90;61.10
20066;DHT22;10193;48.884;9.182;2024-02-26T10:32:09;12.90;61.10
20066;DHT22;10193;48.884;9.182;2024-02-26T10:34:36;13.00;61.20
20066;DHT22;10193;48.884;9.182;2024-02-26T10:37:05;13.10;61.20
20066;DHT22;10193;48.884;9.182;2024-02-26T10:39:33;13.10;60.90
20066;DHT22;10193;48.884;9.182;2024-02-26T10:42:00;13.20;60.90
20066;DHT22;10193;48.884;9.182;2024-02-26T10:44:32;13.20;60.60
20066;DHT22;10193;48.884;9.182;2024-02-26T10:46:58;13.30;60.90
20066;DHT22;10193;48.884;9.182;2024-02-26T10:49:26;13.40;61.10
20066;DHT22;10193;48.884;9.182;2024-02-26T10:51:56;13.40;61.00
20066;DHT22;10193;48.884;9.182;2024-02-26T10:54:24;13.50;61.10
20066;DHT22;10193;48.884;9.182;2024-02-26T10:56:53;13.60;61.10
20066;DHT22;10193;48.884;9.182;2024-02-26T10:59:22;13.60;60.80
20066;DHT22;10193;48.884;9.182;2024-02-26T11:01:49;13.80;60.80
20066;DHT22;10193;48.884;9.182;2024-02-26T11:04:17;13.80;60.50
20066;DHT22;10193;48.884;9.182;2024-02-26T11:06:45;13.80;60.10
20066;DHT22;10193;48.884;9.182;2024-02-26T11:09:13;13.90;60.10
20066;DHT22;10193;48.884;9.182;2024-02-26T11:11:41;13.90;60.00
20066;DHT22;10193;48.884;9.182;2024-02-26T11:14:10;13.90;60.00
20066;DHT22;10193;48.884;9.182;2024-02-26T11:16:39;13.90;59.90
20066;DHT22;10193;48.884;9.182;2024-02-26T11:19:08;14.00;59.80
20066;DHT22;10193;48.884;9.182;2024-02-26T11:21:36;14.00;59.60
20066;DHT22;10193;48.884;9.182;2024-02-26T11:24:08;14.00;59.60
20066;DHT22;10193;48.884;9.182;2024-02-26T11:26:38;14.00;59.30
20066;DHT22;10193;48.884;9.182;2024-02-26T11:29:09;14.00;59.10
20066;DHT22;10193;48.884;9.182;2024-02-26T11:31:38;14.00;58.90
20066;DHT22;10193;48.884;9.182;2024-02-26T11:34:06;14.00;58.70
20066;DHT22;10193;48.884;9.182;2024-02-26T11:36:33;14.00;58.70
20066;DHT22;10193;48.884;9.182;2024-02-26T11:39:00;14.00;58.60
20066;DHT22;10193;48.884;9.182;2024-02-26T11:41:27;14.00;58.50
20066;DHT22;10193;48.884;9.182;2024-02-26T11:43:58;14.00;58.50
20066;DHT22;10193;48.884;9.182;2024-02-26T11:46:28;14.00;58.40
20066;DHT22;10193;48.884;9.182;2024-02-26T11:48:58;14.10;58.50
20066;DHT22;10193;48.884;9.182;2024-02-26T11:51:26;14.10;58.50
20066;DHT22;10193;48.884;9.182;2024-02-26T11:53:53;14.10;58.60
20066;DHT22;10193;48.884;9.182;2024-02-26T11:56:23;14.20;58.90
20066;DHT22;10193;48.884;9.182;2024-02-26T11:58:53;14.20;58.80
20066;DHT22;10193;48.884;9.182;2024-02-26T12:01:41;14.30;58.70
20066;DHT22;10193;48.884;9.182;2024-02-26T12:04:11;14.30;58.30
20066;DHT22;10193;48.884;9.182;2024-02-26T12:06:49;14.40;58.60
20066;DHT22;10193;48.884;9.182;2024-02-26T12:09:36;14.50;58.40
20066;DHT22;10193;48.884;9.182;2024-02-26T12:12:04;14.50;57.80
20066;DHT22;10193;48.884;9.182;2024-02-26T12:14:33;14.60;58.00
20066;DHT22;10193;48.884;9.182;2024-02-26T12:17:03;14.60;57.90
20066;DHT22;10193;48.884;9.182;2024-02-26T12:19:33;14.70;57.70
20066;DHT22;10193;48.884;9.182;2024-02-26T12:22:00;14.70;57.60
20066;DHT22;10193;48.884;9.182;2024-02-26T12:24:26;14.70;57.50
20066;DHT22;10193;48.884;9.182;2024-02-26T12:26:53;14.80;57.60
20066;DHT22;10193;48.884;9.182;2024-02-26T12:29:20;14.80;57.60
20066;DHT22;10193;48.884;9.182;2024-02-26T12:31:47;14.80;57.60
20066;DHT22;10193;48.884;9.182;2024-02-26T12:34:16;14.80;57.80
20066;DHT22;10193;48.884;9.182;2024-02-26T12:36:42;14.90;57.90
20066;DHT22;10193;48.884;9.182;2024-02-26T12:39:09;14.90;57.90
20066;DHT22;10193;48.884;9.182;2024-02-26T12:41:38;15.00;58.00
20066;DHT22;10193;48.884;9.182;2024-02-26T12:44:04;15.00;57.80
20066;DHT22;10193;48.884;9.182;2024-02-26T12:46:32;15.10;57.80
20066;DHT22;10193;48.884;9.182;2024-02-26T12:48:59;15.20;57.80
20066;DHT22;10193;48.884;9.182;2024-02-26T12:51:27;15.20;57.80
20066;DHT22;10193;48.884;9.182;2024-02-26T12:53:55;15.30;57.80
20066;DHT22;10193;48.884;9.182;2024-02-26T12:56:23;15.40;57.90
20066;DHT22;10193;48.884;9.182;2024-02-26T12:58:50;15.50;57.90
20066;DHT22;10193;48.884;9.182;2024-02-26T13:01:19;15.60;57.80
20066;DHT22;10193;48.884;9.182;2024-02-26T13:03:46;15.60;57.50
20066;DHT22;10193;48.884;9.182;2024-02-26T13:06:13;15.70;57.30
20066;DHT22;10193;48.884;9.182;2024-02-26T13:08:42;15.80;57.80
20066;DHT22;10193;48.884;9.182;2024-02-26T13:11:08;15.80;57.00
20066;DHT22;10193;48.884;9.182;2024-02-26T13:13:35;15.90;56.90
20066;DHT22;10193;48.884;9.182;2024-02-26T13:16:03;15.90;56.70
20066;DHT22;10193;48.884;9.182;2024-02-26T13:18:31;15.90;56.70
20066;DHT22;10193;48.884;9.182;2024-02-26T13:21:08;16.00;56.60
20066;DHT22;10193;48.884;9.182;2024-02-26T13:23:35;16.00;56.20
20066;DHT22;10193;48.884;9.182;2024-02-26T13:26:04;16.00;56.50
20066;DHT22;10193;48.884;9.182;2024-02-26T13:28:31;16.10;56.30
20066;DHT22;10193;48.884;9.182;2024-02-26T13:30:58;16.10;56.20
20066;DHT22;10193;48.884;9.182;2024-02-26T13:33:26;16.10;56.00
20066;DHT22;10193;48.884;9.182;2024-02-26T13:35:54;16.10;55.90
20066;DHT22;10193;48.884;9.182;2024-02-26T13:38:21;16.20;55.90
20066;DHT22;10193;48.884;9.182;2024-02-26T13:40:48;16.20;55.80
20066;DHT22;10193;48.884;9.182;2024-02-26T13:43:17;16.20;55.60
20066;DHT22;10193;48.884;9.182;2024-02-26T13:45:44;16.20;55.60
20066;DHT22;10193;48.884;9.182;2024-02-26T13:48:12;16.20;55.40
20066;DHT22;10193;48.884;9.182;2024-02-26T13:50:39;16.20;55.30
20066;DHT22;10193;48.884;9.182;2024-02-26T13:53:06;16.20;55.20
20066;DHT22;10193;48.884;9.182;2024-02-26T13:55:33;16.20;55.10
20066;DHT22;10193;48.884;9.182;2024-02-26T13:58:00;16.20;55.00
20066;DHT22;10193;48.884;9.182;2024-02-26T14:00:29;16.20;54.80
20066;DHT22;10193;48.884;9.182;2024-02-26T14:02:57;16.20;54.70
20066;DHT22;10193;48.884;9.182;2024-02-26T14:05:24;16.20;54.70
20066;DHT22;10193;48.884;9.182;2024-02-26T14:07:51;16.20;54.70
20066;DHT22;10193;48.884;9.182;2024-02-26T14:10:18;16.20;54.70
20066;DHT22;10193;48.884;9.182;2024-02-26T14:12:45;16.20;54.60
20066;DHT22;10193;48.884;9.182;2024-02-26T14:15:12;16.20;55.00
20066;DHT22;10193;48.884;9.182;2024-02-26T14:17:40;16.20;54.50
20066;DHT22;10193;48.884;9.182;2024-02-26T14:20:07;16.20;54.50
20066;DHT22;10193;48.884;9.182;2024-02-26T14:22:34;16.20;54.50
20066;DHT22;10193;48.884;9.182;2024-02-26T14:25:01;16.20;54.40
20066;DHT22;10193;48.884;9.182;2024-02-26T14:27:28;16.20;54.30
20066;DHT22;10193;48.884;9.182;2024-02-26T14:29:54;16.20;54.30
20066;DHT22;10193;48.884;9.182;2024-02-26T14:32:21;16.20;54.30
20066;DHT22;10193;48.884;9.182;2024-02-26T14:34:49;16.20;54.40
20066;DHT22;10193;48.884;9.182;2024-02-26T14:37:16;16.30;54.40
20066;DHT22;10193;48.884;9.182;2024-02-26T14:39:43;16.30;54.40
20066;DHT22;10193;48.884;9.182;2024-02-26T14:42:09;16.30;54.30
20066;DHT22;10193;48.884;9.182;2024-02-26T14:44:36;16.30;54.30
20066;DHT22;10193;48.884;9.182;2024-02-26T14:47:03;16.40;54.20
20066;DHT22;10193;48.884;9.182;2024-02-26T14:49:30;16.40;54.00
20066;DHT22;10193;48.884;9.182;2024-02-26T14:51:58;16.40;53.90
20066;DHT22;10193;48.884;9.182;2024-02-26T14:54:25;16.40;53.70
20066;DHT22;10193;48.884;9.182;2024-02-26T14:56:51;16.40;53.50
20066;DHT22;10193;48.884;9.182;2024-02-26T14:59:18;16.40;53.40
20066;DHT22;10193;48.884;9.182;2024-02-26T15:01:45;16.40;53.30
20066;DHT22;10193;48.884;9.182;2024-02-26T15:04:11;16.30;53.20
20066;DHT22;10193;48.884;9.182;2024-02-26T15:06:38;16.30;53.30
20066;DHT22;10193;48.884;9.182;2024-02-26T15:09:06;16.30;53.30
20066;DHT22;10193;48.884;9.182;2024-02-26T15:11:37;16.20;53.20
20066;DHT22;10193;48.884;9.182;2024-02-26T15:14:04;16.20;53.20
20066;DHT22;10193;48.884;9.182;2024-02-26T15:16:31;16.20;53.20
20066;DHT22;10193;48.884;9.182;2024-02-26T15:18:57;16.20;53.20
20066;DHT22;10193;48.884;9.182;2024-02-26T15:21:24;16.10;53.10
20066;DHT22;10193;48.884;9.182;2024-02-26T15:23:51;16.10;53.10
20066;DHT22;10193;48.884;9.182;2024-02-26T15:26:20;16.10;52.90
20066;DHT22;10193;48.884;9.182;2024-02-26T15:28:48;16.00;52.90
20066;DHT22;10193;48.884;9.182;2024-02-26T15:31:15;16.00;52.90